sensor_id;sensor_type;location;lat;lon;timestamp;temperature;humidity
55064;DHT22;40963;52.168;21.296;2022-07-06T00:00:43;15.80;99.90
55064;DHT22;40963;52.168;21.296;2022-07-06T00:03:08;15.80;99.90
55064;DHT22;40963;52.168;21.296;2022-07-06T00:05:34;15.80;99.90
55064;DHT22;40963;52.168;21.296;2022-07-06T00:08:00;15.80;99.90
55064;DHT22;40963;52.168;21.296;2022-07-06T00:10:25;15.80;99.90
55064;DHT22;40963;52.168;21.296;2022-07-06T00:12:51;15.80;99.90
55064;DHT22;40963;52.168;21.296;2022-07-06T00:15:17;15.80;99.90
55064;DHT22;40963;52.168;21.296;2022-07-06T00:17:42;15.80;99.90
55064;DHT22;40963;52.168;21.296;2022-07-06T00:20:08;15.80;99.90
55064;DHT22;40963;52.168;21.296;2022-07-06T00:22:34;15.80;99.90
55064;DHT22;40963;52.168;21.296;2022-07-06T00:25:00;15.80;99.90
55064;DHT22;40963;52.168;21.296;2022-07-06T00:27:25;15.80;99.90
55064;DHT22;40963;52.168;21.296;2022-07-06T00:29:51;15.80;99.90
55064;DHT22;40963;52.168;21.296;2022-07-06T00:32:16;15.80;99.90
55064;DHT22;40963;52.168;21.296;2022-07-06T00:34:42;15.80;99.90
55064;DHT22;40963;52.168;21.296;2022-07-06T00:37:08;15.80;99.90
55064;DHT22;40963;52.168;21.296;2022-07-06T00:39:34;15.80;99.90
55064;DHT22;40963;52.168;21.296;2022-07-06T00:42:00;15.70;99.90
55064;DHT22;40963;52.168;21.296;2022-07-06T00:44:25;15.70;99.90
55064;DHT22;40963;52.168;21.296;2022-07-06T00:46:51;15.70;99.90
55064;DHT22;40963;52.168;21.296;2022-07-06T00:49:17;15.70;99.90
55064;DHT22;40963;52.168;21.296;2022-07-06T00:52:01;15.70;99.90
55064;DHT22;40963;52.168;21.296;2022-07-06T00:54:30;15.70;99.90
55064;DHT22;40963;52.168;21.296;2022-07-06T00:56:56;15.70;99.90
55064;DHT22;40963;52.168;21.296;2022-07-06T00:59:23;15.70;99.90
55064;DHT22;40963;52.168;21.296;2022-07-06T01:01:49;15.70;99.90
55064;DHT22;40963;52.168;21.296;2022-07-06T01:04:15;15.70;99.90
55064;DHT22;40963;52.168;21.296;2022-07-06T01:06:41;15.70;99.90
55064;DHT22;40963;52.168;21.296;2022-07-06T01:09:06;15.60;99.90
55064;DHT22;40963;52.168;21.296;2022-07-06T01:11:32;15.60;99.90
55064;DHT22;40963;52.168;21.296;2022-07-06T01:14:00;15.60;99.90
55064;DHT22;40963;52.168;21.296;2022-07-06T01:16:26;15.60;99.90
55064;DHT22;40963;52.168;21.296;2022-07-06T01:18:52;15.60;99.90
55064;DHT22;40963;52.168;21.296;2022-07-06T01:21:17;15.60;99.90
55064;DHT22;40963;52.168;21.296;2022-07-06T01:23:47;15.60;99.90
55064;DHT22;40963;52.168;21.296;2022-07-06T01:26:18;15.60;99.90
55064;DHT22;40963;52.168;21.296;2022-07-06T01:28:45;15.60;99.90
55064;DHT22;40963;52.168;21.296;2022-07-06T01:31:16;15.50;99.90
55064;DHT22;40963;52.168;21.296;2022-07-06T01:33:43;15.60;99.90
55064;DHT22;40963;52.168;21.296;2022-07-06T01:36:09;15.60;99.90
55064;DHT22;40963;52.168;21.296;2022-07-06T01:38:51;15.60;99.90
55064;DHT22;40963;52.168;21.296;2022-07-06T01:41:18;15.50;99.90
55064;DHT22;40963;52.168;21.296;2022-07-06T01:43:44;15.60;99.90
55064;DHT22;40963;52.168;21.296;2022-07-06T01:46:10;15.50;99.90
55064;DHT22;40963;52.168;21.296;2022-07-06T01:48:35;15.50;99.90
55064;DHT22;40963;52.168;21.296;2022-07-06T01:51:01;15.50;99.90
55064;DHT22;40963;52.168;21.296;2022-07-06T01:53:27;15.50;99.90
55064;DHT22;40963;52.168;21.296;2022-07-06T01:55:53;15.50;99.90
55064;DHT22;40963;52.168;21.296;2022-07-06T01:58:18;15.50;99.90
55064;DHT22;40963;52.168;21.296;2022-07-06T02:00:44;15.50;99.90
55064;DHT22;40963;52.168;21.296;2022-07-06T02:03:09;15.50;99.90
55064;DHT22;40963;52.168;21.296;2022-07-06T02:05:35;15.50;99.90
55064;DHT22;40963;52.168;21.296;2022-07-06T02:08:01;15.50;99.90
55064;DHT22;40963;52.168;21.296;2022-07-06T02:10:26;15.40;99.90
55064;DHT22;40963;52.168;21.296;2022-07-06T02:12:52;15.40;99.90
55064;DHT22;40963;52.168;21.296;2022-07-06T02:15:17;15.40;99.90
55064;DHT22;40963;52.168;21.296;2022-07-06T02:17:43;15.40;99.90
55064;DHT22;40963;52.168;21.296;2022-07-06T02:20:09;15.40;99.90
55064;DHT22;40963;52.168;21.296;2022-07-06T02:22:35;15.40;99.90
55064;DHT22;40963;52.168;21.296;2022-07-06T02:25:01;15.40;99.90
55064;DHT22;40963;52.168;21.296;2022-07-06T02:27:26;15.40;99.90
55064;DHT22;40963;52.168;21.296;2022-07-06T02:29:52;15.40;99.90
55064;DHT22;40963;52.168;21.296;2022-07-06T02:32:18;15.40;99.90
55064;DHT22;40963;52.168;21.296;2022-07-06T02:34:43;15.40;99.90
55064;DHT22;40963;52.168;21.296;2022-07-06T02:37:09;15.40;99.90
55064;DHT22;40963;52.168;21.296;2022-07-06T02:39:35;15.40;99.90
55064;DHT22;40963;52.168;21.296;2022-07-06T02:42:01;15.40;99.90
55064;DHT22;40963;52.168;21.296;2022-07-06T02:44:26;15.40;99.90
55064;DHT22;40963;52.168;21.296;2022-07-06T02:46:52;15.40;99.90
55064;DHT22;40963;52.168;21.296;2022-07-06T02:49:17;15.40;99.90
55064;DHT22;40963;52.168;21.296;2022-07-06T02:51:43;15.30;99.90
55064;DHT22;40963;52.168;21.296;2022-07-06T02:54:09;15.40;99.90
55064;DHT22;40963;52.168;21.296;2022-07-06T02:56:34;15.30;99.90
55064;DHT22;40963;52.168;21.296;2022-07-06T02:59:00;15.30;99.90
55064;DHT22;40963;52.168;21.296;2022-07-06T03:01:28;15.30;99.90
55064;DHT22;40963;52.168;21.296;2022-07-06T03:03:54;15.30;99.90
55064;DHT22;40963;52.168;21.296;2022-07-06T03:06:19;15.30;99.90
55064;DHT22;40963;52.168;21.296;2022-07-06T03:08:45;15.30;99.90
55064;DHT22;40963;52.168;21.296;2022-07-06T03:11:10;15.30;99.90
55064;DHT22;40963;52.168;21.296;2022-07-06T03:13:36;15.30;99.90
55064;DHT22;40963;52.168;21.296;2022-07-06T03:16:02;15.20;99.90
55064;DHT22;40963;52.168;21.296;2022-07-06T03:18:27;15.20;99.90
55064;DHT22;40963;52.168;21.296;2022-07-06T03:20:53;15.30;99.90
55064;DHT22;40963;52.168;21.296;2022-07-06T03:23:19;15.20;99.90
55064;DHT22;40963;52.168;21.296;2022-07-06T03:25:45;15.20;99.90
55064;DHT22;40963;52.168;21.296;2022-07-06T03:28:11;15.20;99.90
55064;DHT22;40963;52.168;21.296;2022-07-06T03:30:37;15.20;99.90
55064;DHT22;40963;52.168;21.296;2022-07-06T03:33:02;15.20;99.90
55064;DHT22;40963;52.168;21.296;2022-07-06T03:35:28;15.20;99.90
55064;DHT22;40963;52.168;21.296;2022-07-06T03:37:54;15.20;99.90
55064;DHT22;40963;52.168;21.296;2022-07-06T03:40:19;15.20;99.90
55064;DHT22;40963;52.168;21.296;2022-07-06T03:42:45;15.20;99.90
55064;DHT22;40963;52.168;21.296;2022-07-06T03:45:11;15.20;99.90
55064;DHT22;40963;52.168;21.296;2022-07-06T03:47:37;15.20;99.90
55064;DHT22;40963;52.168;21.296;2022-07-06T03:50:03;15.20;99.90
55064;DHT22;40963;52.168;21.296;2022-07-06T03:52:31;15.10;99.90
55064;DHT22;40963;52.168;21.296;2022-07-06T03:55:07;15.10;99.90
55064;DHT22;40963;52.168;21.296;2022-07-06T03:57:38;15.10;99.90
55064;DHT22;40963;52.168;21.296;2022-07-06T04:00:15;15.10;99.90
55064;DHT22;40963;52.168;21.296;2022-07-06T04:03:06;15.10;99.90
55064;DHT22;40963;52.168;21.296;2022-07-06T04:05:34;15.10;99.90
55064;DHT22;40963;52.168;21.296;2022-07-06T04:08:12;15.10;99.90
55064;DHT22;40963;52.168;21.296;2022-07-06T04:10:49;15.10;99.90
55064;DHT22;40963;52.168;21.296;2022-07-06T04:13:25;15.10;99.90
55064;DHT22;40963;52.168;21.296;2022-07-06T04:15:51;15.10;99.90
55064;DHT22;40963;52.168;21.296;2022-07-06T04:18:21;15.10;99.90
55064;DHT22;40963;52.168;21.296;2022-07-06T04:21:00;15.10;99.90
55064;DHT22;40963;52.168;21.296;2022-07-06T04:23:26;15.10;99.90
55064;DHT22;40963;52.168;21.296;2022-07-06T04:25:51;15.10;99.90
55064;DHT22;40963;52.168;21.296;2022-07-06T04:28:27;15.00;99.90
55064;DHT22;40963;52.168;21.296;2022-07-06T04:31:07;15.00;99.90
55064;DHT22;40963;52.168;21.296;2022-07-06T04:33:43;15.00;99.90
55064;DHT22;40963;52.168;21.296;2022-07-06T04:36:11;15.00;99.90
55064;DHT22;40963;52.168;21.296;2022-07-06T04:38:42;15.00;99.90
55064;DHT22;40963;52.168;21.296;2022-07-06T04:41:08;15.00;99.90
55064;DHT22;40963;52.168;21.296;2022-07-06T04:43:41;15.00;99.90
55064;DHT22;40963;52.168;21.296;2022-07-06T04:46:09;15.00;99.90
55064;DHT22;40963;52.168;21.296;2022-07-06T04:48:35;15.00;99.90
55064;DHT22;40963;52.168;21.296;2022-07-06T04:51:04;14.90;99.90
55064;DHT22;40963;52.168;21.296;2022-07-06T04:53:30;14.90;99.90
55064;DHT22;40963;52.168;21.296;2022-07-06T04:55:56;14.90;99.90
55064;DHT22;40963;52.168;21.296;2022-07-06T04:58:22;14.90;99.90
55064;DHT22;40963;52.168;21.296;2022-07-06T05:00:47;14.90;99.90
55064;DHT22;40963;52.168;21.296;2022-07-06T05:03:13;14.80;99.90
55064;DHT22;40963;52.168;21.296;2022-07-06T05:05:39;14.80;99.90
55064;DHT22;40963;52.168;21.296;2022-07-06T05:08:05;14.80;99.90
55064;DHT22;40963;52.168;21.296;2022-07-06T05:10:30;14.90;99.90
55064;DHT22;40963;52.168;21.296;2022-07-06T05:12:56;14.90;99.90
55064;DHT22;40963;52.168;21.296;2022-07-06T05:15:22;14.90;99.90
55064;DHT22;40963;52.168;21.296;2022-07-06T05:17:48;15.00;99.90
55064;DHT22;40963;52.168;21.296;2022-07-06T05:20:13;15.10;99.90
55064;DHT22;40963;52.168;21.296;2022-07-06T05:22:39;15.10;99.90
55064;DHT22;40963;52.168;21.296;2022-07-06T05:25:05;15.00;99.90
55064;DHT22;40963;52.168;21.296;2022-07-06T05:27:31;15.00;99.90
55064;DHT22;40963;52.168;21.296;2022-07-06T05:29:57;15.00;99.90
55064;DHT22;40963;52.168;21.296;2022-07-06T05:32:22;15.00;99.90
55064;DHT22;40963;52.168;21.296;2022-07-06T05:34:51;15.00;99.90
55064;DHT22;40963;52.168;21.296;2022-07-06T05:37:16;15.10;99.90
55064;DHT22;40963;52.168;21.296;2022-07-06T05:39:42;15.00;99.90
55064;DHT22;40963;52.168;21.296;2022-07-06T05:42:10;15.00;99.90
55064;DHT22;40963;52.168;21.296;2022-07-06T05:44:36;15.00;99.90
55064;DHT22;40963;52.168;21.296;2022-07-06T05:47:02;15.00;99.90
55064;DHT22;40963;52.168;21.296;2022-07-06T05:49:46;15.00;99.90
55064;DHT22;40963;52.168;21.296;2022-07-06T05:52:30;15.00;99.90
55064;DHT22;40963;52.168;21.296;2022-07-06T05:54:56;15.00;99.90
55064;DHT22;40963;52.168;21.296;2022-07-06T05:57:21;15.00;99.90
55064;DHT22;40963;52.168;21.296;2022-07-06T05:59:47;15.00;99.90
55064;DHT22;40963;52.168;21.296;2022-07-06T06:02:13;15.00;99.90
55064;DHT22;40963;52.168;21.296;2022-07-06T06:04:38;15.00;99.90
55064;DHT22;40963;52.168;21.296;2022-07-06T06:07:04;15.00;99.90
55064;DHT22;40963;52.168;21.296;2022-07-06T06:09:30;15.00;99.90
55064;DHT22;40963;52.168;21.296;2022-07-06T06:11:56;15.00;99.90
55064;DHT22;40963;52.168;21.296;2022-07-06T06:14:21;15.00;99.90
55064;DHT22;40963;52.168;21.296;2022-07-06T06:16:47;15.00;99.90
55064;DHT22;40963;52.168;21.296;2022-07-06T06:19:12;15.00;99.90
55064;DHT22;40963;52.168;21.296;2022-07-06T06:21:38;15.00;99.90
55064;DHT22;40963;52.168;21.296;2022-07-06T06:24:04;15.00;99.90
55064;DHT22;40963;52.168;21.296;2022-07-06T06:26:29;15.00;99.90
55064;DHT22;40963;52.168;21.296;2022-07-06T06:28:55;15.10;99.90
55064;DHT22;40963;52.168;21.296;2022-07-06T06:31:21;15.10;99.90
55064;DHT22;40963;52.168;21.296;2022-07-06T06:33:46;15.10;99.90
55064;DHT22;40963;52.168;21.296;2022-07-06T06:36:12;15.10;99.90
55064;DHT22;40963;52.168;21.296;2022-07-06T06:38:38;15.10;99.90
55064;DHT22;40963;52.168;21.296;2022-07-06T06:41:06;15.20;99.90
55064;DHT22;40963;52.168;21.296;2022-07-06T06:43:31;15.20;99.90
55064;DHT22;40963;52.168;21.296;2022-07-06T06:45:57;15.20;99.90
55064;DHT22;40963;52.168;21.296;2022-07-06T06:48:23;15.20;99.90
55064;DHT22;40963;52.168;21.296;2022-07-06T06:50:48;15.20;99.90
55064;DHT22;40963;52.168;21.296;2022-07-06T06:53:14;15.20;99.90
55064;DHT22;40963;52.168;21.296;2022-07-06T06:55:40;15.20;99.90
55064;DHT22;40963;52.168;21.296;2022-07-06T06:58:06;15.20;99.90
55064;DHT22;40963;52.168;21.296;2022-07-06T07:00:31;15.20;99.90
55064;DHT22;40963;52.168;21.296;2022-07-06T07:02:57;15.20;99.90
55064;DHT22;40963;52.168;21.296;2022-07-06T07:05:22;15.10;99.90
55064;DHT22;40963;52.168;21.296;2022-07-06T07:07:48;15.20;99.90
55064;DHT22;40963;52.168;21.296;2022-07-06T07:10:14;15.10;99.90
55064;DHT22;40963;52.168;21.296;2022-07-06T07:12:47;15.10;99.90
55064;DHT22;40963;52.168;21.296;2022-07-06T07:15:13;15.10;99.90
55064;DHT22;40963;52.168;21.296;2022-07-06T07:17:40;15.20;99.90
55064;DHT22;40963;52.168;21.296;2022-07-06T07:20:06;15.20;99.90
55064;DHT22;40963;52.168;21.296;2022-07-06T07:22:32;15.30;99.90
55064;DHT22;40963;52.168;21.296;2022-07-06T07:24:58;15.40;99.90
55064;DHT22;40963;52.168;21.296;2022-07-06T07:27:25;15.50;99.90
55064;DHT22;40963;52.168;21.296;2022-07-06T07:29:51;15.60;99.90
55064;DHT22;40963;52.168;21.296;2022-07-06T07:32:16;15.70;99.90
55064;DHT22;40963;52.168;21.296;2022-07-06T07:34:42;15.70;99.90
55064;DHT22;40963;52.168;21.296;2022-07-06T07:37:08;15.80;99.90
55064;DHT22;40963;52.168;21.296;2022-07-06T07:39:33;15.80;99.90
55064;DHT22;40963;52.168;21.296;2022-07-06T07:41:59;15.80;99.90
55064;DHT22;40963;52.168;21.296;2022-07-06T07:44:27;15.90;99.90
55064;DHT22;40963;52.168;21.296;2022-07-06T07:46:53;16.00;99.90
55064;DHT22;40963;52.168;21.296;2022-07-06T07:49:18;16.10;99.90
55064;DHT22;40963;52.168;21.296;2022-07-06T07:51:46;16.30;99.90
55064;DHT22;40963;52.168;21.296;2022-07-06T07:54:12;16.20;99.90
55064;DHT22;40963;52.168;21.296;2022-07-06T07:56:38;16.30;99.90
55064;DHT22;40963;52.168;21.296;2022-07-06T07:59:07;16.20;99.90
55064;DHT22;40963;52.168;21.296;2022-07-06T08:01:33;16.30;99.90
55064;DHT22;40963;52.168;21.296;2022-07-06T08:03:59;16.30;99.90
55064;DHT22;40963;52.168;21.296;2022-07-06T08:06:25;16.40;99.90
55064;DHT22;40963;52.168;21.296;2022-07-06T08:08:51;16.50;99.90
55064;DHT22;40963;52.168;21.296;2022-07-06T08:11:17;16.50;99.90
55064;DHT22;40963;52.168;21.296;2022-07-06T08:13:43;16.60;99.90
55064;DHT22;40963;52.168;21.296;2022-07-06T08:16:08;16.70;99.90
55064;DHT22;40963;52.168;21.296;2022-07-06T08:18:35;16.70;99.90
55064;DHT22;40963;52.168;21.296;2022-07-06T08:21:01;16.70;99.90
55064;DHT22;40963;52.168;21.296;2022-07-06T08:23:27;16.70;99.90
55064;DHT22;40963;52.168;21.296;2022-07-06T08:25:52;16.60;99.90
55064;DHT22;40963;52.168;21.296;2022-07-06T08:28:18;16.60;99.90
55064;DHT22;40963;52.168;21.296;2022-07-06T08:30:44;16.50;99.90
55064;DHT22;40963;52.168;21.296;2022-07-06T08:33:09;16.50;99.90
55064;DHT22;40963;52.168;21.296;2022-07-06T08:35:35;16.50;99.90
55064;DHT22;40963;52.168;21.296;2022-07-06T08:38:01;16.40;99.90
55064;DHT22;40963;52.168;21.296;2022-07-06T08:40:33;16.30;99.90
55064;DHT22;40963;52.168;21.296;2022-07-06T08:42:59;16.20;99.90
55064;DHT22;40963;52.168;21.296;2022-07-06T08:45:25;16.10;99.90
55064;DHT22;40963;52.168;21.296;2022-07-06T08:47:54;16.00;99.90
55064;DHT22;40963;52.168;21.296;2022-07-06T08:50:20;16.00;99.90
55064;DHT22;40963;52.168;21.296;2022-07-06T08:52:50;16.10;99.90
55064;DHT22;40963;52.168;21.296;2022-07-06T08:55:17;16.10;99.90
55064;DHT22;40963;52.168;21.296;2022-07-06T08:57:46;16.10;99.90
55064;DHT22;40963;52.168;21.296;2022-07-06T09:00:12;16.00;99.90
55064;DHT22;40963;52.168;21.296;2022-07-06T09:02:40;16.00;99.90
55064;DHT22;40963;52.168;21.296;2022-07-06T09:05:06;16.00;99.90
55064;DHT22;40963;52.168;21.296;2022-07-06T09:07:34;16.00;99.90
55064;DHT22;40963;52.168;21.296;2022-07-06T09:10:00;16.00;99.90
55064;DHT22;40963;52.168;21.296;2022-07-06T09:12:27;16.00;99.90
55064;DHT22;40963;52.168;21.296;2022-07-06T09:14:57;16.00;99.90
55064;DHT22;40963;52.168;21.296;2022-07-06T09:17:29;16.00;99.90
55064;DHT22;40963;52.168;21.296;2022-07-06T09:19:56;16.10;99.90
55064;DHT22;40963;52.168;21.296;2022-07-06T09:22:29;16.10;99.90
55064;DHT22;40963;52.168;21.296;2022-07-06T09:25:10;16.10;99.90
55064;DHT22;40963;52.168;21.296;2022-07-06T09:27:39;16.00;99.90
55064;DHT22;40963;52.168;21.296;2022-07-06T09:30:09;16.00;99.90
55064;DHT22;40963;52.168;21.296;2022-07-06T09:32:41;16.00;99.90
55064;DHT22;40963;52.168;21.296;2022-07-06T09:35:08;15.90;99.90
55064;DHT22;40963;52.168;21.296;2022-07-06T09:37:44;16.00;99.90
55064;DHT22;40963;52.168;21.296;2022-07-06T09:40:17;16.10;99.90
55064;DHT22;40963;52.168;21.296;2022-07-06T09:42:44;16.00;99.90
55064;DHT22;40963;52.168;21.296;2022-07-06T09:45:09;16.00;99.90
55064;DHT22;40963;52.168;21.296;2022-07-06T09:47:35;16.00;99.90
55064;DHT22;40963;52.168;21.296;2022-07-06T09:50:05;16.10;99.90
55064;DHT22;40963;52.168;21.296;2022-07-06T09:52:34;16.20;99.90
55064;DHT22;40963;52.168;21.296;2022-07-06T09:54:59;16.20;99.90
55064;DHT22;40963;52.168;21.296;2022-07-06T09:57:25;16.20;99.90
55064;DHT22;40963;52.168;21.296;2022-07-06T09:59:51;16.30;99.90
55064;DHT22;40963;52.168;21.296;2022-07-06T10:02:20;16.40;99.90
55064;DHT22;40963;52.168;21.296;2022-07-06T10:04:46;16.30;99.90
55064;DHT22;40963;52.168;21.296;2022-07-06T10:07:13;16.20;99.90
55064;DHT22;40963;52.168;21.296;2022-07-06T10:09:40;16.20;99.90
55064;DHT22;40963;52.168;21.296;2022-07-06T10:12:09;16.30;99.90
55064;DHT22;40963;52.168;21.296;2022-07-06T10:14:37;16.40;99.90
55064;DHT22;40963;52.168;21.296;2022-07-06T10:17:04;16.50;99.90
55064;DHT22;40963;52.168;21.296;2022-07-06T10:19:31;16.40;99.90
55064;DHT22;40963;52.168;21.296;2022-07-06T10:21:59;16.30;99.90
55064;DHT22;40963;52.168;21.296;2022-07-06T10:24:27;16.40;99.90
55064;DHT22;40963;52.168;21.296;2022-07-06T10:26:52;16.50;99.90
55064;DHT22;40963;52.168;21.296;2022-07-06T10:29:18;16.70;99.90
55064;DHT22;40963;52.168;21.296;2022-07-06T10:31:46;16.60;99.90
55064;DHT22;40963;52.168;21.296;2022-07-06T10:34:14;16.70;99.90
55064;DHT22;40963;52.168;21.296;2022-07-06T10:36:41;16.70;99.90
55064;DHT22;40963;52.168;21.296;2022-07-06T10:39:08;16.70;99.90
55064;DHT22;40963;52.168;21.296;2022-07-06T10:41:52;16.80;99.90
55064;DHT22;40963;52.168;21.296;2022-07-06T10:44:21;16.90;99.90
55064;DHT22;40963;52.168;21.296;2022-07-06T10:46:56;17.00;99.90
55064;DHT22;40963;52.168;21.296;2022-07-06T10:49:23;17.10;99.90
55064;DHT22;40963;52.168;21.296;2022-07-06T10:51:50;17.10;99.90
55064;DHT22;40963;52.168;21.296;2022-07-06T10:54:17;17.10;99.90
55064;DHT22;40963;52.168;21.296;2022-07-06T10:59:23;17.30;99.90
55064;DHT22;40963;52.168;21.296;2022-07-06T11:02:14;17.50;99.90
55064;DHT22;40963;52.168;21.296;2022-07-06T11:04:41;17.70;99.90
55064;DHT22;40963;52.168;21.296;2022-07-06T11:09:38;17.60;99.90
55064;DHT22;40963;52.168;21.296;2022-07-06T11:12:19;17.70;99.90
55064;DHT22;40963;52.168;21.296;2022-07-06T11:14:47;17.80;99.90
55064;DHT22;40963;52.168;21.296;2022-07-06T11:17:13;17.90;99.90
55064;DHT22;40963;52.168;21.296;2022-07-06T11:19:58;18.10;99.90
55064;DHT22;40963;52.168;21.296;2022-07-06T11:22:24;18.30;99.90
55064;DHT22;40963;52.168;21.296;2022-07-06T11:24:52;18.40;99.90
55064;DHT22;40963;52.168;21.296;2022-07-06T11:27:18;18.50;99.90
55064;DHT22;40963;52.168;21.296;2022-07-06T11:29:44;18.60;99.80
55064;DHT22;40963;52.168;21.296;2022-07-06T11:32:11;18.70;99.60
55064;DHT22;40963;52.168;21.296;2022-07-06T11:34:41;18.90;99.50
55064;DHT22;40963;52.168;21.296;2022-07-06T11:37:09;19.00;99.20
55064;DHT22;40963;52.168;21.296;2022-07-06T11:39:40;19.30;98.90
55064;DHT22;40963;52.168;21.296;2022-07-06T11:42:07;19.50;98.40
55064;DHT22;40963;52.168;21.296;2022-07-06T11:44:34;19.60;97.30
55064;DHT22;40963;52.168;21.296;2022-07-06T11:47:02;19.60;97.30
55064;DHT22;40963;52.168;21.296;2022-07-06T11:49:30;19.60;97.00
55064;DHT22;40963;52.168;21.296;2022-07-06T11:51:56;19.60;97.40
55064;DHT22;40963;52.168;21.296;2022-07-06T11:54:23;19.50;97.20
55064;DHT22;40963;52.168;21.296;2022-07-06T11:56:57;19.50;97.20
55064;DHT22;40963;52.168;21.296;2022-07-06T11:59:30;19.40;96.60
55064;DHT22;40963;52.168;21.296;2022-07-06T12:02:01;19.70;95.80
55064;DHT22;40963;52.168;21.296;2022-07-06T12:04:27;19.90;95.60
55064;DHT22;40963;52.168;21.296;2022-07-06T12:06:54;20.10;96.20
55064;DHT22;40963;52.168;21.296;2022-07-06T12:09:21;20.10;95.40
55064;DHT22;40963;52.168;21.296;2022-07-06T12:11:47;20.00;96.00
55064;DHT22;40963;52.168;21.296;2022-07-06T12:14:20;19.90;96.60
55064;DHT22;40963;52.168;21.296;2022-07-06T12:16:48;19.80;97.30
55064;DHT22;40963;52.168;21.296;2022-07-06T12:19:14;19.80;98.40
55064;DHT22;40963;52.168;21.296;2022-07-06T12:21:45;19.80;98.90
55064;DHT22;40963;52.168;21.296;2022-07-06T12:24:20;19.70;99.30
55064;DHT22;40963;52.168;21.296;2022-07-06T12:26:46;19.70;98.90
55064;DHT22;40963;52.168;21.296;2022-07-06T12:29:13;19.80;98.50
55064;DHT22;40963;52.168;21.296;2022-07-06T12:31:49;19.90;98.10
55064;DHT22;40963;52.168;21.296;2022-07-06T12:34:17;20.20;97.10
55064;DHT22;40963;52.168;21.296;2022-07-06T12:36:48;20.30;95.50
55064;DHT22;40963;52.168;21.296;2022-07-06T12:39:15;20.50;96.20
55064;DHT22;40963;52.168;21.296;2022-07-06T12:41:47;20.60;96.60
55064;DHT22;40963;52.168;21.296;2022-07-06T12:44:13;20.60;97.00
55064;DHT22;40963;52.168;21.296;2022-07-06T12:46:40;20.50;96.80
55064;DHT22;40963;52.168;21.296;2022-07-06T12:49:18;20.50;96.70
55064;DHT22;40963;52.168;21.296;2022-07-06T12:54:36;20.80;96.70
55064;DHT22;40963;52.168;21.296;2022-07-06T12:57:09;20.90;95.80
55064;DHT22;40963;52.168;21.296;2022-07-06T12:59:43;21.00;94.20
55064;DHT22;40963;52.168;21.296;2022-07-06T13:02:17;21.00;92.80
55064;DHT22;40963;52.168;21.296;2022-07-06T13:04:43;21.00;92.10
55064;DHT22;40963;52.168;21.296;2022-07-06T13:07:18;21.10;92.10
55064;DHT22;40963;52.168;21.296;2022-07-06T13:09:44;21.10;89.00
55064;DHT22;40963;52.168;21.296;2022-07-06T13:12:10;21.10;88.00
55064;DHT22;40963;52.168;21.296;2022-07-06T13:14:36;21.00;86.80
55064;DHT22;40963;52.168;21.296;2022-07-06T13:17:02;21.10;85.20
55064;DHT22;40963;52.168;21.296;2022-07-06T13:19:28;21.10;85.30
55064;DHT22;40963;52.168;21.296;2022-07-06T13:21:53;21.20;84.10
55064;DHT22;40963;52.168;21.296;2022-07-06T13:24:19;21.30;84.50
55064;DHT22;40963;52.168;21.296;2022-07-06T13:26:44;21.40;82.60
55064;DHT22;40963;52.168;21.296;2022-07-06T13:29:11;21.50;81.70
55064;DHT22;40963;52.168;21.296;2022-07-06T13:31:39;21.50;80.60
55064;DHT22;40963;52.168;21.296;2022-07-06T13:34:05;21.50;79.80
55064;DHT22;40963;52.168;21.296;2022-07-06T13:36:31;21.30;79.40
55064;DHT22;40963;52.168;21.296;2022-07-06T13:38:57;21.20;78.40
55064;DHT22;40963;52.168;21.296;2022-07-06T13:41:22;21.20;79.30
55064;DHT22;40963;52.168;21.296;2022-07-06T13:43:48;21.10;79.10
55064;DHT22;40963;52.168;21.296;2022-07-06T13:46:14;21.20;78.50
55064;DHT22;40963;52.168;21.296;2022-07-06T13:48:42;21.30;78.10
55064;DHT22;40963;52.168;21.296;2022-07-06T13:51:08;21.40;77.30
55064;DHT22;40963;52.168;21.296;2022-07-06T13:53:33;21.40;75.60
55064;DHT22;40963;52.168;21.296;2022-07-06T13:55:59;21.40;74.60
55064;DHT22;40963;52.168;21.296;2022-07-06T13:58:25;21.50;73.00
55064;DHT22;40963;52.168;21.296;2022-07-06T14:00:51;21.60;72.50
55064;DHT22;40963;52.168;21.296;2022-07-06T14:03:17;21.70;71.60
55064;DHT22;40963;52.168;21.296;2022-07-06T14:05:43;21.80;71.30
55064;DHT22;40963;52.168;21.296;2022-07-06T14:08:08;21.90;69.10
55064;DHT22;40963;52.168;21.296;2022-07-06T14:10:34;21.90;67.50
55064;DHT22;40963;52.168;21.296;2022-07-06T14:13:00;22.00;65.80
55064;DHT22;40963;52.168;21.296;2022-07-06T14:15:25;22.00;65.20
55064;DHT22;40963;52.168;21.296;2022-07-06T14:17:51;22.10;64.80
55064;DHT22;40963;52.168;21.296;2022-07-06T14:20:16;22.20;64.60
55064;DHT22;40963;52.168;21.296;2022-07-06T14:22:44;22.30;63.50
55064;DHT22;40963;52.168;21.296;2022-07-06T14:25:09;22.50;63.10
55064;DHT22;40963;52.168;21.296;2022-07-06T14:27:36;22.60;62.30
55064;DHT22;40963;52.168;21.296;2022-07-06T14:30:02;22.60;62.00
55064;DHT22;40963;52.168;21.296;2022-07-06T14:32:28;22.60;62.00
55064;DHT22;40963;52.168;21.296;2022-07-06T14:34:54;22.50;61.40
55064;DHT22;40963;52.168;21.296;2022-07-06T14:37:19;22.40;62.50
55064;DHT22;40963;52.168;21.296;2022-07-06T14:39:45;22.30;64.00
55064;DHT22;40963;52.168;21.296;2022-07-06T14:42:12;22.20;64.30
55064;DHT22;40963;52.168;21.296;2022-07-06T14:44:38;22.10;64.60
55064;DHT22;40963;52.168;21.296;2022-07-06T14:47:03;21.90;65.00
55064;DHT22;40963;52.168;21.296;2022-07-06T14:49:30;21.80;65.10
55064;DHT22;40963;52.168;21.296;2022-07-06T14:51:56;21.70;64.80
55064;DHT22;40963;52.168;21.296;2022-07-06T14:54:23;21.60;65.10
55064;DHT22;40963;52.168;21.296;2022-07-06T14:56:49;21.50;65.00
55064;DHT22;40963;52.168;21.296;2022-07-06T14:59:14;21.50;65.00
55064;DHT22;40963;52.168;21.296;2022-07-06T15:01:40;21.40;65.80
55064;DHT22;40963;52.168;21.296;2022-07-06T15:04:06;21.40;66.40
55064;DHT22;40963;52.168;21.296;2022-07-06T15:06:32;21.30;66.10
55064;DHT22;40963;52.168;21.296;2022-07-06T15:08:57;21.30;66.20
55064;DHT22;40963;52.168;21.296;2022-07-06T15:11:23;21.30;66.30
55064;DHT22;40963;52.168;21.296;2022-07-06T15:13:49;21.20;66.20
55064;DHT22;40963;52.168;21.296;2022-07-06T15:16:14;21.20;66.30
55064;DHT22;40963;52.168;21.296;2022-07-06T15:18:40;21.20;66.60
55064;DHT22;40963;52.168;21.296;2022-07-06T15:21:06;21.10;65.50
55064;DHT22;40963;52.168;21.296;2022-07-06T15:23:31;21.10;65.20